Time;durP1;ratioP1;P1;durP2;ratioP2;P2;SDS_P1;SDS_P2;PMS_P1;PMS_P2;Temp;Humidity;BMP_temperature;BMP_pressure;BME280_temperature;BME280_humidity;BME280_pressure;Samples;Min_cycle;Max_cycle;Signal;HPM_P1;HPM_P2
2022/10/05 00:01:23;;;;;;;14.15;6.20;;;;;;;14.95;45.92;101775.28;7393497;19;20057;-67
2022/10/05 00:03:49;;;;;;;14.70;6.40;;;;;;;14.99;45.74;101767.91;7393456;19;20018;-68
2022/10/05 00:06:15;;;;;;;14.07;6.25;;;;;;;15.04;45.61;101773.16;7391419;19;20026;-67
2022/10/05 00:08:42;;;;;;;14.20;6.35;;;;;;;14.91;45.99;101766.09;7392734;19;20003;-67
2022/10/05 00:11:08;;;;;;;17.90;6.50;;;;;;;15.05;45.33;101763.00;7393047;19;20026;-67
2022/10/05 00:13:33;;;;;;;12.80;6.40;;;;;;;15.01;45.64;101767.56;7393381;19;20009;-67
2022/10/05 00:16:18;;;;;;;15.02;6.55;;;;;;;15.07;45.42;101755.97;7393647;19;19999;-67
2022/10/05 00:18:52;;;;;;;13.90;6.57;;;;;;;14.98;45.57;101752.59;7390702;19;20023;-68
2022/10/05 00:21:24;;;;;;;14.57;6.25;;;;;;;14.97;45.69;101751.78;7393330;19;19998;-67
2022/10/05 00:23:50;;;;;;;12.45;5.85;;;;;;;15.02;45.81;101750.72;7392158;19;20036;-67
2022/10/05 00:26:21;;;;;;;15.77;6.25;;;;;;;14.95;45.91;101743.09;7393164;19;20007;-67
2022/10/05 00:28:47;;;;;;;16.33;7.05;;;;;;;15.03;45.55;101743.28;7390078;19;20329;-67
2022/10/05 00:31:16;;;;;;;13.45;6.95;;;;;;;14.86;45.96;101736.13;7392376;19;20009;-67
2022/10/05 00:33:42;;;;;;;15.25;6.50;;;;;;;14.99;45.88;101734.94;7391974;19;20026;-67
2022/10/05 00:36:08;;;;;;;14.77;6.32;;;;;;;15.03;45.69;101738.59;7393026;19;20002;-67
2022/10/05 00:38:33;;;;;;;14.57;6.40;;;;;;;15.07;45.56;101739.50;7389719;19;20363;-67
2022/10/05 00:41:17;;;;;;;16.17;6.05;;;;;;;15.06;45.60;101732.38;7390843;19;20411;-68
2022/10/05 00:44:23;;;;;;;14.82;6.95;;;;;;;14.94;46.06;101724.19;7391839;19;20066;-67
2022/10/05 00:46:54;;;;;;;16.45;6.68;;;;;;;14.96;46.00;101728.19;7392476;19;20102;-67
2022/10/05 00:49:46;;;;;;;12.70;6.80;;;;;;;14.91;45.94;101719.38;7391389;19;20402;-67
2022/10/05 00:52:24;;;;;;;13.25;6.13;;;;;;;14.98;45.99;101712.16;7389582;19;19994;-68
2022/10/05 00:55:05;;;;;;;19.00;6.80;;;;;;;15.02;45.90;101705.97;7391962;19;20512;-68
2022/10/05 00:57:55;;;;;;;14.00;6.18;;;;;;;15.02;45.92;101712.25;7390680;19;19990;-68
2022/10/05 01:00:24;;;;;;;12.95;6.07;;;;;;;14.96;46.05;101716.38;7390018;19;20058;-68
2022/10/05 01:03:03;;;;;;;15.70;6.18;;;;;;;14.93;45.95;101717.06;7391697;19;20028;-68
2022/10/05 01:05:34;;;;;;;14.40;6.38;;;;;;;15.02;45.92;101716.94;7389533;19;20037;-68
2022/10/05 01:08:16;;;;;;;11.88;6.25;;;;;;;14.95;46.04;101721.09;7389967;19;19998;-68
2022/10/05 01:10:57;;;;;;;11.50;5.72;;;;;;;15.02;45.92;101726.00;7390883;19;20010;-68
2022/10/05 01:13:47;;;;;;;12.27;5.78;;;;;;;15.05;45.95;101719.81;7392006;19;19990;-68
2022/10/05 01:16:27;;;;;;;11.90;6.15;;;;;;;15.05;46.10;101719.81;7391211;19;19999;-68
2022/10/05 01:19:09;;;;;;;14.40;6.45;;;;;;;15.01;46.26;101720.84;7390811;19;19998;-68
2022/10/05 01:22:06;;;;;;;12.43;6.00;;;;;;;14.98;46.08;101719.59;7390770;19;20014;-67
2022/10/05 01:24:48;;;;;;;13.18;5.90;;;;;;;14.95;46.24;101714.81;7388337;19;19995;-67
2022/10/05 01:27:37;;;;;;;13.65;6.30;;;;;;;15.06;46.08;101699.38;7391451;19;19999;-66
2022/10/05 01:30:15;;;;;;;14.98;6.30;;;;;;;15.11;46.26;101692.84;7387371;19;20470;-67
2022/10/05 01:33:07;;;;;;;15.43;6.32;;;;;;;15.08;46.40;101694.34;7390114;19;20263;-67
2022/10/05 01:35:53;;;;;;;13.40;6.60;;;;;;;14.91;46.98;101692.72;7391071;19;20006;-68
2022/10/05 01:38:24;;;;;;;13.73;6.15;;;;;;;14.95;46.47;101698.31;7387952;19;20003;-67
2022/10/05 01:41:02;;;;;;;14.68;6.78;;;;;;;14.99;46.43;101696.44;7391010;19;20099;-67
2022/10/05 01:43:32;;;;;;;15.50;7.05;;;;;;;15.06;46.39;101691.13;7390271;19;20002;-67
2022/10/05 01:46:09;;;;;;;16.30;6.95;;;;;;;14.93;46.59;101676.66;7391207;19;20002;-68
2022/10/05 01:48:56;;;;;;;15.85;6.38;;;;;;;15.06;46.43;101674.66;7387460;19;20294;-67
2022/10/05 01:51:46;;;;;;;14.75;6.82;;;;;;;15.01;46.68;101668.59;7391020;19;20386;-67
2022/10/05 01:54:39;;;;;;;13.88;6.53;;;;;;;15.00;46.58;101676.06;7383927;19;20479;-67
2022/10/05 01:57:23;;;;;;;16.77;6.57;;;;;;;14.92;47.00;101668.78;7385919;19;20119;-68
2022/10/05 02:00:08;;;;;;;13.65;6.80;;;;;;;14.96;46.84;101664.97;7386006;19;20010;-67
2022/10/05 02:02:38;;;;;;;14.27;6.75;;;;;;;14.96;46.95;101659.47;7386791;19;20062;-68
2022/10/05 02:05:12;;;;;;;13.93;6.78;;;;;;;15.00;46.75;101662.31;7386184;19;20022;-68
2022/10/05 02:07:40;;;;;;;;;;;;;;;15.01;47.12;101655.66;7388147;19;20010;-68
2022/10/05 02:10:21;;;;;;;15.32;7.07;;;;;;;14.88;47.35;101652.19;7393663;19;19917;-69
2022/10/05 02:12:52;;;;;;;13.52;6.50;;;;;;;14.96;47.14;101655.91;7394918;19;19999;-67
2022/10/05 02:15:25;;;;;;;12.55;6.00;;;;;;;14.99;47.15;101655.22;7393958;19;20395;-68
2022/10/05 02:17:58;;;;;;;12.05;6.40;;;;;;;14.98;47.12;101648.13;7392893;19;19995;-68
2022/10/05 02:20:31;;;;;;;13.35;6.15;;;;;;;15.03;47.15;101645.13;7393243;19;20436;-68
2022/10/05 02:23:02;;;;;;;13.00;5.88;;;;;;;14.96;47.13;101645.72;7394817;19;20518;-68
2022/10/05 02:25:32;;;;;;;11.80;6.22;;;;;;;14.92;47.41;101639.31;7391148;19;20015;-68
2022/10/05 02:28:16;;;;;;;14.82;6.68;;;;;;;14.99;47.25;101639.50;7390224;19;20006;-66
2022/10/05 02:30:49;;;;;;;13.57;6.57;;;;;;;15.08;47.05;101636.63;7393881;19;20026;-66
2022/10/05 02:33:25;;;;;;;12.52;6.80;;;;;;;14.88;47.55;101626.63;7394376;19;19998;-66
2022/10/05 02:35:50;;;;;;;14.57;6.80;;;;;;;15.07;47.21;101639.72;7393798;19;19998;-65
2022/10/05 02:38:36;;;;;;;13.63;6.53;;;;;;;15.06;47.09;101627.91;7391511;19;20498;-65
2022/10/05 02:41:16;;;;;;;15.65;6.53;;;;;;;15.10;47.19;101637.06;7392612;19;20006;-66
2022/10/05 02:43:52;;;;;;;15.95;7.50;;;;;;;15.06;47.01;101636.16;7393744;19;19998;-65
2022/10/05 02:46:33;;;;;;;14.13;6.57;;;;;;;14.89;47.63;101628.25;7393557;19;20002;-66
2022/10/05 02:49:30;;;;;;;14.95;6.65;;;;;;;14.98;47.41;101632.44;7393327;19;20593;-66
2022/10/05 02:52:30;;;;;;;14.74;6.43;;;;;;;14.97;47.64;101621.78;7312550;19;9711962;-68
2022/10/05 02:55:35;;;;;;;13.00;5.95;;;;;;;14.99;47.58;101606.53;7394818;19;20242;-65
2022/10/05 02:58:10;;;;;;;13.52;6.35;;;;;;;14.97;47.27;101616.28;7393172;19;20003;-69
2022/10/05 03:00:46;;;;;;;14.18;6.50;;;;;;;14.95;47.39;101611.13;7395734;19;20016;-67
2022/10/05 03:03:46;;;;;;;13.57;6.97;;;;;;;14.98;47.60;101602.19;7393997;19;20062;-66
2022/10/05 03:06:21;;;;;;;12.30;5.63;;;;;;;15.03;47.83;101605.81;7395085;19;20549;-66
2022/10/05 03:08:58;;;;;;;12.20;6.30;;;;;;;15.06;47.35;101608.66;7394765;19;20011;-66
2022/10/05 03:11:33;;;;;;;14.50;6.47;;;;;;;15.05;47.59;101609.81;7395666;19;20126;-65
2022/10/05 03:14:07;;;;;;;14.25;7.35;;;;;;;15.05;47.75;101595.28;7393834;19;20020;-67
2022/10/05 03:17:00;;;;;;;13.82;6.70;;;;;;;14.91;48.15;101598.44;7394525;19;20013;-66
2022/10/05 03:19:38;;;;;;;14.02;6.45;;;;;;;14.88;48.14;101593.66;7394255;19;19999;-67
2022/10/05 03:22:42;;;;;;;12.48;6.63;;;;;;;14.97;47.97;101586.06;7395710;19;20011;-67
2022/10/05 03:25:34;;;;;;;14.18;7.10;;;;;;;14.89;48.24;101578.75;7391267;19;19999;-68
2022/10/05 03:28:09;;;;;;;16.13;7.05;;;;;;;15.02;47.98;101577.53;7392863;19;20006;-68
2022/10/05 03:30:49;;;;;;;13.35;6.53;;;;;;;14.91;48.44;101587.44;7394359;19;20013;-66
2022/10/05 03:33:20;;;;;;;13.80;6.55;;;;;;;14.94;47.92;101587.53;7395257;19;20002;-68
2022/10/05 03:35:53;;;;;;;14.60;7.15;;;;;;;15.01;47.91;101592.44;7393794;19;20034;-68
2022/10/05 03:38:53;;;;;;;13.93;6.80;;;;;;;15.02;48.22;101588.53;7392161;19;20014;-68
2022/10/05 03:41:33;;;;;;;13.27;6.50;;;;;;;14.93;48.21;101591.47;7392274;19;19995;-66
2022/10/05 03:44:11;;;;;;;14.98;6.90;;;;;;;15.03;47.88;101601.16;7394811;19;19994;-67
2022/10/05 03:46:58;;;;;;;16.52;7.30;;;;;;;14.95;48.52;101588.34;7394028;19;20350;-66
2022/10/05 03:50:02;;;;;;;14.52;7.47;;;;;;;15.01;48.30;101581.44;7393726;19;20001;-66
2022/10/05 03:52:43;;;;;;;16.60;7.00;;;;;;;14.85;48.67;101584.16;7393439;19;20014;-66
2022/10/05 03:55:29;;;;;;;19.10;7.47;;;;;;;15.01;48.32;101586.94;7394531;19;20015;-67
2022/10/05 03:57:58;;;;;;;15.02;7.32;;;;;;;15.05;48.33;101581.53;7392060;19;20009;-67
2022/10/05 04:00:25;;;;;;;17.88;7.97;;;;;;;15.06;48.12;101583.91;7391725;19;20375;-67
2022/10/05 04:03:00;;;;;;;15.73;7.95;;;;;;;15.03;48.35;101581.06;7392985;19;20062;-67
2022/10/05 04:05:31;;;;;;;13.50;6.90;;;;;;;15.05;48.21;101576.06;7390303;19;19994;-65
2022/10/05 04:08:10;;;;;;;18.30;7.93;;;;;;;15.02;48.32;101577.53;7391510;19;20009;-66
2022/10/05 04:10:45;;;;;;;14.75;7.78;;;;;;;15.05;48.30;101579.59;7393025;19;20099;-67
2022/10/05 04:13:31;;;;;;;18.20;7.65;;;;;;;15.02;48.51;101574.78;7392823;19;19999;-66
2022/10/05 04:16:06;;;;;;;15.00;8.13;;;;;;;14.98;48.49;101571.16;7393256;19;20352;-67
2022/10/05 04:18:37;;;;;;;14.35;7.65;;;;;;;15.00;48.67;101568.84;7388493;19;20026;-67
2022/10/05 04:21:10;;;;;;;13.75;7.47;;;;;;;14.98;48.57;101573.91;7393209;19;20118;-67
2022/10/05 04:24:03;;;;;;;12.80;7.10;;;;;;;14.98;48.74;101566.47;7395295;19;20019;-68
2022/10/05 04:26:47;;;;;;;14.32;7.80;;;;;;;14.94;48.90;101573.00;7392433;19;20407;-67
2022/10/05 04:29:43;;;;;;;14.43;7.97;;;;;;;14.85;49.26;101567.69;7391665;19;20054;-65
2022/10/05 04:32:21;;;;;;;17.00;8.07;;;;;;;14.82;49.43;101567.59;7390322;19;20077;-67
2022/10/05 04:35:02;;;;;;;15.07;7.53;;;;;;;14.94;48.74;101570.25;7392207;19;19999;-67
2022/10/05 04:37:45;;;;;;;16.85;8.20;;;;;;;14.95;48.77;101566.38;7391549;19;20006;-66
2022/10/05 04:40:44;;;;;;;17.77;8.13;;;;;;;15.04;48.77;101572.47;7391916;19;19995;-65
2022/10/05 04:43:31;;;;;;;16.38;8.23;;;;;;;14.90;49.37;101569.38;7392660;19;20021;-68
2022/10/05 04:46:04;;;;;;;16.20;8.15;;;;;;;14.86;49.24;101571.22;7390318;19;20007;-66
2022/10/05 04:48:45;;;;;;;15.45;8.13;;;;;;;14.93;48.93;101557.66;7390333;19;20009;-66
2022/10/05 04:51:13;;;;;;;17.60;9.23;;;;;;;14.85;48.99;101551.19;7391244;19;20002;-61
2022/10/05 04:53:53;;;;;;;16.10;8.98;;;;;;;14.84;49.20;101554.28;7390968;19;20010;-61
2022/10/05 04:56:35;;;;;;;16.38;8.48;;;;;;;14.94;49.29;101551.81;7391108;19;20046;-61
2022/10/05 04:59:25;;;;;;;19.25;8.82;;;;;;;14.86;49.46;101552.78;7391179;19;20018;-61
2022/10/05 05:02:19;;;;;;;16.60;9.00;;;;;;;14.82;49.63;101553.84;7391519;19;19997;-61
2022/10/05 05:05:06;;;;;;;16.15;8.45;;;;;;;14.86;49.25;101554.72;7389112;19;19995;-61
2022/10/05 05:07:52;;;;;;;18.23;8.73;;;;;;;14.76;49.74;101558.78;7390835;19;20003;-62
2022/10/05 05:10:34;;;;;;;15.48;8.48;;;;;;;14.77;49.82;101560.41;7390898;19;20006;-61
2022/10/05 05:13:09;;;;;;;18.55;8.90;;;;;;;14.86;49.54;101562.97;7391328;19;19998;-61
2022/10/05 05:15:45;;;;;;;16.90;8.70;;;;;;;14.75;49.74;101547.00;7391134;19;20103;-61
2022/10/05 05:18:32;;;;;;;18.77;9.50;;;;;;;14.83;49.47;101550.75;7388549;19;20123;-62
2022/10/05 05:21:39;;;;;;;18.52;9.77;;;;;;;14.67;50.30;101550.69;7391128;19;20106;-61
2022/10/05 05:24:19;;;;;;;19.10;9.00;;;;;;;14.82;49.63;101542.84;7389681;19;19991;-61
2022/10/05 05:26:54;;;;;;;17.08;9.48;;;;;;;14.81;49.66;101539.28;7390586;19;20005;-60
2022/10/05 05:29:47;;;;;;;18.33;9.73;;;;;;;14.77;50.14;101544.69;7390242;19;20002;-60
2022/10/05 05:32:51;;;;;;;19.33;9.45;;;;;;;14.73;50.10;101535.53;7388716;19;20509;-61
2022/10/05 05:36:08;;;;;;;21.00;9.73;;;;;;;14.71;50.01;101546.09;7391422;19;19999;-61
2022/10/05 05:38:34;;;;;;;20.25;9.60;;;;;;;14.67;50.04;101544.41;7385414;19;20309;-61
2022/10/05 05:41:07;;;;;;;18.25;9.52;;;;;;;14.39;50.83;101537.75;7388971;19;20450;-61
2022/10/05 05:43:39;;;;;;;18.58;9.73;;;;;;;14.63;50.31;101534.09;7394124;19;20014;-60
2022/10/05 05:46:07;;;;;;;18.60;9.93;;;;;;;14.66;50.17;101535.34;7394024;19;20024;-61
2022/10/05 05:48:42;;;;;;;19.02;10.20;;;;;;;14.68;50.18;101535.81;7393540;19;20082;-61
2022/10/05 05:51:22;;;;;;;16.58;9.75;;;;;;;14.78;49.88;101534.53;7398663;19;20006;-61
2022/10/05 05:53:52;;;;;;;20.08;10.35;;;;;;;14.70;50.17;101525.25;7394709;19;20019;-61
2022/10/05 05:56:26;;;;;;;19.85;9.95;;;;;;;14.73;50.14;101526.47;7397988;19;20003;-62
2022/10/05 05:58:56;;;;;;;20.13;9.73;;;;;;;14.84;49.82;101530.34;7396894;19;20473;-61
2022/10/05 06:01:39;;;;;;;17.90;9.73;;;;;;;14.84;50.11;101524.06;7397640;19;20003;-61
2022/10/05 06:04:26;;;;;;;20.60;10.35;;;;;;;14.76;50.10;101515.63;7396929;19;19990;-61
2022/10/05 06:06:54;;;;;;;18.85;10.18;;;;;;;14.69;50.22;101518.16;7396618;19;20032;-61
2022/10/05 06:09:29;;;;;;;19.38;10.50;;;;;;;14.77;50.05;101511.72;7396484;19;20010;-61
2022/10/05 06:12:00;;;;;;;18.67;10.75;;;;;;;14.67;50.47;101520.47;7397131;19;20002;-61
2022/10/05 06:14:36;;;;;;;17.75;10.15;;;;;;;14.82;50.28;101515.38;7395353;19;20010;-60
2022/10/05 06:17:38;;;;;;;20.70;11.02;;;;;;;14.72;50.68;101508.41;7396400;19;20443;-61
2022/10/05 06:20:12;;;;;;;18.42;9.85;;;;;;;14.88;50.03;101517.50;7394778;19;20011;-62
2022/10/05 06:22:41;;;;;;;16.55;9.57;;;;;;;14.89;50.03;101523.78;7396213;19;19999;-63
2022/10/05 06:25:13;;;;;;;17.77;9.60;;;;;;;14.80;50.33;101524.75;7395246;19;20336;-61
2022/10/05 06:28:12;;;;;;;20.20;10.20;;;;;;;14.98;50.26;101529.94;7394707;19;20010;-61
2022/10/05 06:30:49;;;;;;;18.00;10.13;;;;;;;14.96;50.19;101526.72;7397158;19;20111;-61
2022/10/05 06:33:14;;;;;;;16.88;9.80;;;;;;;15.05;49.79;101527.34;7396679;19;20002;-62
2022/10/05 06:36:03;;;;;;;18.75;10.05;;;;;;;15.08;49.74;101528.59;7396389;19;20029;-60
2022/10/05 06:38:49;;;;;;;19.27;10.20;;;;;;;15.04;50.14;101531.25;7392271;19;20025;-62
2022/10/05 06:41:48;;;;;;;17.58;10.10;;;;;;;15.09;49.72;101532.94;7395705;19;20007;-62
2022/10/05 06:44:32;;;;;;;19.25;9.80;;;;;;;14.96;50.02;101523.97;7395360;19;20061;-61
2022/10/05 06:47:09;;;;;;;16.73;8.98;;;;;;;15.12;49.78;101513.00;7394163;19;20013;-62
2022/10/05 06:49:50;;;;;;;17.75;9.80;;;;;;;15.14;49.77;101530.72;7395189;19;20326;-61
2022/10/05 06:52:37;;;;;;;20.85;9.18;;;;;;;15.16;49.69;101531.19;7396115;19;20006;-60
2022/10/05 06:55:24;;;;;;;17.70;9.80;;;;;;;15.17;49.74;101524.50;7395124;19;20010;-61
2022/10/05 06:58:14;;;;;;;17.20;9.75;;;;;;;15.14;49.88;101525.22;7393917;19;20018;-61
2022/10/05 07:00:51;;;;;;;21.88;9.95;;;;;;;15.15;50.10;101526.03;7396140;19;20002;-61
2022/10/05 07:03:30;;;;;;;16.60;9.25;;;;;;;15.20;49.57;101539.50;7395834;19;20003;-61
2022/10/05 07:06:13;;;;;;;20.58;9.63;;;;;;;15.22;49.78;101552.91;7393948;19;20003;-61
2022/10/05 07:08:57;;;;;;;20.33;10.70;;;;;;;15.14;50.18;101547.22;7394795;19;20095;-61
2022/10/05 07:11:40;;;;;;;19.27;10.05;;;;;;;15.20;50.10;101550.50;7394441;19;20006;-61
2022/10/05 07:14:35;;;;;;;17.42;9.82;;;;;;;15.16;49.92;101550.44;7393543;19;20602;-61
2022/10/05 07:17:38;;;;;;;17.00;9.65;;;;;;;15.21;50.15;101552.09;7393904;19;20003;-60
2022/10/05 07:20:27;;;;;;;18.90;10.38;;;;;;;15.24;49.79;101545.09;7394088;19;20002;-60
2022/10/05 07:23:35;;;;;;;19.65;9.90;;;;;;;15.33;49.80;101530.00;7394624;19;20523;-61
2022/10/05 07:26:08;;;;;;;19.95;9.57;;;;;;;15.39;49.61;101547.03;7391229;19;20028;-61
2022/10/05 07:28:46;;;;;;;18.45;9.60;;;;;;;15.38;49.45;101550.94;7390929;19;19998;-61
2022/10/05 07:31:45;;;;;;;17.40;10.15;;;;;;;15.35;49.86;101551.66;7395289;19;20063;-61
2022/10/05 07:34:44;;;;;;;16.50;9.07;;;;;;;15.41;49.72;101549.44;7395180;19;19999;-60
2022/10/05 07:40:13;;;;;;;18.05;9.68;;;;;;;15.31;49.97;101556.25;7391339;19;20416;-60
2022/10/05 07:42:42;;;;;;;19.48;9.60;;;;;;;15.33;50.00;101552.00;7392069;19;20514;-60
2022/10/05 07:45:28;;;;;;;18.30;9.63;;;;;;;15.18;50.48;101550.84;7391244;19;20010;-61
2022/10/05 07:47:56;;;;;;;18.25;8.98;;;;;;;15.31;50.13;101542.50;7393011;19;20052;-61
2022/10/05 07:50:35;;;;;;;18.05;9.55;;;;;;;15.23;50.08;101544.31;7391836;19;20301;-61
2022/10/05 07:53:15;;;;;;;15.38;9.20;;;;;;;15.47;49.70;101548.78;7390777;19;20010;-61
2022/10/05 07:55:48;;;;;;;14.25;8.50;;;;;;;15.49;49.49;101551.97;7393090;19;19998;-61
2022/10/05 07:58:38;;;;;;;17.23;8.63;;;;;;;15.69;49.24;101543.81;7391803;19;20006;-61
2022/10/05 08:01:12;;;;;;;16.88;8.55;;;;;;;15.66;49.11;101552.78;7393404;19;19997;-61
2022/10/05 08:03:51;;;;;;;16.83;8.30;;;;;;;15.59;49.62;101558.09;7393491;19;20009;-62
2022/10/05 08:06:42;;;;;;;16.30;8.50;;;;;;;15.76;48.93;101557.72;7391084;19;20035;-61
2022/10/05 08:09:32;;;;;;;13.20;7.70;;;;;;;15.76;49.00;101554.97;7393081;19;20017;-61
2022/10/05 08:12:18;;;;;;;17.05;8.50;;;;;;;15.90;48.60;101563.56;7393222;19;20022;-62
2022/10/05 08:14:55;;;;;;;15.10;8.07;;;;;;;15.97;48.58;101553.88;7393575;19;20069;-61
2022/10/05 08:18:01;;;;;;;15.52;7.18;;;;;;;15.88;48.52;101554.88;7392041;19;19998;-62
2022/10/05 08:20:44;;;;;;;14.57;7.88;;;;;;;15.87;48.71;101549.72;7389666;19;20043;-62
2022/10/05 08:23:38;;;;;;;13.93;7.38;;;;;;;16.06;48.46;101551.69;7393021;19;19998;-62
2022/10/05 08:26:22;;;;;;;13.45;7.60;;;;;;;16.00;48.39;101553.13;7391956;19;19998;-62
2022/10/05 08:29:06;;;;;;;13.75;7.55;;;;;;;16.08;48.12;101560.38;7391016;19;20002;-62
2022/10/05 08:31:33;;;;;;;;;;;;;;;16.07;48.09;101556.06;7394203;19;20002;-62
2022/10/05 08:34:39;;;;;;;14.10;7.40;;;;;;;16.05;48.55;101545.41;7393394;19;19911;-60
2022/10/05 08:37:20;;;;;;;14.00;7.10;;;;;;;16.10;48.30;101547.88;7391916;19;20003;-61
2022/10/05 08:40:17;;;;;;;16.80;7.22;;;;;;;16.16;48.36;101542.88;7391704;19;20002;-61
2022/10/05 08:42:45;;;;;;;14.95;7.30;;;;;;;16.27;48.08;101548.59;7390556;19;20010;-62
2022/10/05 08:45:45;;;;;;;13.98;7.20;;;;;;;16.32;47.97;101547.50;7391237;19;19999;-60
2022/10/05 08:49:04;;;;;;;13.07;7.55;;;;;;;15.92;48.50;101536.47;7390126;19;20221;-61
2022/10/05 08:51:47;;;;;;;13.45;6.47;;;;;;;16.18;47.80;101539.75;7389236;19;19994;-61
2022/10/05 08:54:34;;;;;;;12.85;6.55;;;;;;;16.28;47.76;101542.75;7389432;19;20459;-61
2022/10/05 08:57:22;;;;;;;11.38;6.55;;;;;;;16.12;48.29;101541.19;7391613;19;20003;-62
2022/10/05 09:00:03;;;;;;;13.05;6.60;;;;;;;16.01;48.46;101533.50;7389459;19;20466;-61
2022/10/05 09:03:05;;;;;;;14.30;7.40;;;;;;;16.19;48.14;101550.41;7392310;19;20002;-61
2022/10/05 09:05:39;;;;;;;14.05;6.75;;;;;;;16.05;48.23;101536.34;7385633;19;20018;-62
2022/10/05 09:08:10;;;;;;;13.85;6.57;;;;;;;16.03;48.34;101546.91;7387610;19;20107;-61
2022/10/05 09:10:58;;;;;;;14.05;6.60;;;;;;;16.21;47.77;101534.31;7391175;19;19998;-61
2022/10/05 09:13:33;;;;;;;14.73;6.80;;;;;;;16.08;48.37;101536.44;7391327;19;20077;-61
2022/10/05 09:16:07;;;;;;;12.70;6.93;;;;;;;15.94;48.47;101538.06;7391494;19;19999;-61
2022/10/05 09:18:52;;;;;;;12.57;6.40;;;;;;;15.94;48.06;101538.06;7388553;19;20006;-62
2022/10/05 09:21:41;;;;;;;12.07;6.72;;;;;;;16.00;48.10;101536.63;7388845;19;20005;-61
2022/10/05 09:24:13;;;;;;;12.25;6.63;;;;;;;16.16;47.66;101529.09;7391408;19;20058;-62
2022/10/05 09:26:55;;;;;;;12.20;6.85;;;;;;;16.20;47.51;101531.91;7390379;19;20003;-61
2022/10/05 09:29:45;;;;;;;12.10;6.90;;;;;;;16.32;47.33;101531.78;7390900;19;20319;-61
2022/10/05 09:32:48;;;;;;;12.43;6.93;;;;;;;16.34;47.18;101528.66;7363332;19;20003;-61
2022/10/05 09:35:51;;;;;;;14.13;7.05;;;;;;;16.01;47.59;101528.00;7391119;19;20007;-61
2022/10/05 09:38:28;;;;;;;14.57;8.02;;;;;;;16.03;47.37;101524.88;7388600;19;19999;-62
2022/10/05 09:41:12;;;;;;;13.30;7.28;;;;;;;16.19;47.58;101522.88;7390541;19;20026;-61
2022/10/05 09:43:48;;;;;;;14.65;7.15;;;;;;;16.16;47.41;101518.06;7390004;19;20015;-62
2022/10/05 09:46:38;;;;;;;12.23;7.07;;;;;;;16.41;46.93;101502.03;7388908;19;20082;-62
2022/10/05 09:49:22;;;;;;;11.75;7.25;;;;;;;16.44;46.93;101511.53;7388970;19;20006;-61
2022/10/05 09:51:57;;;;;;;;;;;;;;;16.34;46.82;101507.41;7390989;19;20003;-61
2022/10/05 09:55:04;;;;;;;10.38;6.43;;;;;;;16.42;46.61;101506.41;7388454;19;19959;-62
2022/10/05 09:57:48;;;;;;;12.48;6.47;;;;;;;16.52;46.55;101499.53;7388141;19;20081;-61
2022/10/05 10:00:19;;;;;;;12.00;6.20;;;;;;;16.33;47.05;101486.53;7388978;19;19999;-61
2022/10/05 10:02:57;;;;;;;11.43;6.35;;;;;;;16.50;46.52;101498.28;7389956;19;20006;-61
2022/10/05 10:05:45;;;;;;;11.75;6.18;;;;;;;16.45;46.75;101493.84;7388172;19;20002;-62
2022/10/05 10:08:33;;;;;;;11.50;5.90;;;;;;;16.52;46.22;101502.28;7388155;19;20466;-60
2022/10/05 10:11:28;;;;;;;12.68;5.75;;;;;;;16.46;46.38;101493.47;7388244;19;19991;-61
2022/10/05 10:14:18;;;;;;;11.25;6.03;;;;;;;16.27;46.84;101499.81;7389530;19;20003;-61
2022/10/05 10:17:06;;;;;;;9.85;5.65;;;;;;;16.23;46.95;101482.44;7387812;19;20025;-61
2022/10/05 10:20:17;;;;;;;9.65;4.90;;;;;;;16.37;46.39;101478.34;7388547;19;20010;-61
2022/10/05 10:23:00;;;;;;;9.70;5.15;;;;;;;16.69;45.71;101478.97;7387335;19;20451;-61
2022/10/05 10:25:54;;;;;;;10.43;4.43;;;;;;;16.69;45.62;101478.16;7387441;19;20016;-61
2022/10/05 10:28:33;;;;;;;8.48;4.45;;;;;;;16.75;45.52;101471.16;7387044;19;20023;-61
2022/10/05 10:31:16;;;;;;;9.90;4.50;;;;;;;16.80;45.44;101468.91;7396597;19;20009;-61
2022/10/05 10:34:03;;;;;;;8.35;4.13;;;;;;;16.96;45.15;101465.22;7397058;19;20472;-62
2022/10/05 10:36:38;;;;;;;10.20;4.05;;;;;;;17.04;45.45;101463.38;7393404;19;20351;-62
2022/10/05 10:39:20;;;;;;;8.93;4.38;;;;;;;16.99;45.25;101445.97;7395991;19;20018;-61
2022/10/05 10:42:04;;;;;;;8.60;4.40;;;;;;;17.12;45.14;101456.78;7396379;19;19998;-61
2022/10/05 10:44:53;;;;;;;8.45;4.18;;;;;;;17.22;44.75;101447.91;7395487;19;19999;-61
2022/10/05 10:47:41;;;;;;;8.15;4.22;;;;;;;17.06;45.19;101450.81;7394265;19;20356;-62
2022/10/05 10:50:32;;;;;;;8.00;4.10;;;;;;;17.19;44.98;101449.44;7395517;19;19991;-61
2022/10/05 10:53:13;;;;;;;8.68;4.03;;;;;;;17.05;45.46;101460.22;7393980;19;19998;-62
2022/10/05 10:56:11;;;;;;;13.07;5.10;;;;;;;16.61;46.20;101444.97;7394172;19;20363;-62
2022/10/05 10:58:58;;;;;;;8.85;4.15;;;;;;;16.97;45.50;101450.28;7391956;19;19999;-61
2022/10/05 11:01:28;;;;;;;9.18;4.20;;;;;;;16.89;45.79;101449.38;7395632;19;19998;-62
2022/10/05 11:04:26;;;;;;;7.63;4.00;;;;;;;16.92;45.58;101437.59;7393453;19;20013;-61
2022/10/05 11:07:28;;;;;;;12.55;5.47;;;;;;;17.26;44.99;101437.72;7394705;19;20075;-61
2022/10/05 11:10:18;;;;;;;11.35;5.28;;;;;;;16.96;45.69;101432.13;7395413;19;20026;-61
2022/10/05 11:13:23;;;;;;;10.35;4.75;;;;;;;17.20;45.02;101422.63;7394719;19;20006;-62
2022/10/05 11:16:07;;;;;;;;;;;;;;;17.35;44.50;101430.00;7396001;19;20001;-61
2022/10/05 11:19:09;;;;;;;10.43;4.13;;;;;;;17.49;44.38;101431.38;7391907;19;19915;-61
2022/10/05 11:22:01;;;;;;;7.45;3.47;;;;;;;17.30;45.12;101413.78;7395497;19;20026;-61
2022/10/05 11:24:41;;;;;;;9.07;3.90;;;;;;;17.52;44.82;101414.84;7391284;19;19995;-61
2022/10/05 11:27:13;;;;;;;7.97;3.58;;;;;;;17.49;44.36;101420.31;7393286;19;20002;-61
2022/10/05 11:29:48;;;;;;;10.48;3.90;;;;;;;17.76;44.22;101408.03;7391991;19;19998;-61
2022/10/05 11:32:16;;;;;;;8.70;3.50;;;;;;;17.41;44.96;101413.13;7393009;19;19998;-61
2022/10/05 11:34:57;;;;;;;7.90;2.95;;;;;;;17.44;45.01;101415.13;7394521;19;20003;-61
2022/10/05 11:37:35;;;;;;;7.18;2.90;;;;;;;17.69;44.58;101405.19;7391781;19;19999;-61
2022/10/05 11:40:36;;;;;;;9.02;3.30;;;;;;;17.53;44.71;101404.59;7391318;19;20002;-61
2022/10/05 11:43:10;;;;;;;6.32;2.97;;;;;;;17.60;44.78;101403.88;7393948;19;20472;-61
2022/10/05 11:45:54;;;;;;;6.15;2.97;;;;;;;17.63;44.80;101394.84;7392436;19;20003;-61
2022/10/05 11:48:38;;;;;;;7.97;3.15;;;;;;;17.79;43.97;101389.13;7390227;19;19994;-61
2022/10/05 11:51:33;;;;;;;9.60;3.15;;;;;;;17.98;43.32;101375.13;7393930;19;20002;-62
2022/10/05 11:54:16;;;;;;;6.57;2.75;;;;;;;18.06;43.70;101379.59;7392947;19;20370;-61
2022/10/05 11:57:04;;;;;;;4.53;2.38;;;;;;;17.95;43.68;101370.38;7393072;19;20013;-61
2022/10/05 11:59:51;;;;;;;4.68;2.40;;;;;;;17.68;44.21;101370.47;7391559;19;20023;-60
2022/10/05 12:02:23;;;;;;;8.05;2.95;;;;;;;17.67;44.27;101360.63;7393271;19;20112;-60
2022/10/05 12:05:05;;;;;;;6.50;2.50;;;;;;;17.69;44.01;101363.78;7393718;19;20010;-60
2022/10/05 12:07:39;;;;;;;7.65;2.83;;;;;;;17.71;44.34;101360.66;7392518;19;20006;-61
2022/10/05 12:10:43;;;;;;;9.52;2.78;;;;;;;17.83;44.02;101351.31;7393013;19;20499;-61
2022/10/05 12:13:24;;;;;;;7.20;2.90;;;;;;;17.92;44.15;101346.25;7391558;19;20009;-60
2022/10/05 12:16:11;;;;;;;7.53;2.75;;;;;;;17.79;44.55;101344.94;7393685;19;20251;-61
2022/10/05 12:18:56;;;;;;;5.65;2.67;;;;;;;17.89;44.21;101339.53;7389122;19;20006;-61
2022/10/05 12:21:48;;;;;;;7.25;2.53;;;;;;;18.01;43.97;101337.69;7393164;19;20359;-61
2022/10/05 12:24:30;;;;;;;7.15;2.60;;;;;;;17.91;44.07;101325.38;7391552;19;20009;-61
2022/10/05 12:27:06;;;;;;;9.63;3.50;;;;;;;17.98;44.25;101330.16;7392295;19;20009;-61
2022/10/05 12:29:55;;;;;;;7.28;3.08;;;;;;;18.11;43.90;101335.06;7391563;19;20007;-60
2022/10/05 12:32:40;;;;;;;6.07;2.80;;;;;;;17.91;44.36;101319.84;7393412;19;20431;-61